FDX232 KMEM-CYYZ
Flight info
| Callsign | FDX232 |
|---|---|
| Flight time | N/A |
| Altitude | 35000 |
| Route | CRSON7 HUMMS DCT PXV DCT MAYZE DCT QWERI NUBER6 |
| Aircraft | MD11/H-SDE1E2E3FGHIJ2J3J4J5M1RWXY/LB1D1 |
Departure
| Time | 2026-05-07 20:18 |
|---|---|
| Airport | Memphis International Airport (KMEM) |
Arrival
| Time | N/A |
|---|---|
| Airport | Toronto Pearson International Airport (CYYZ) |
| Time | Latitude | Longitude | Altitude | Speed | Heading |
|---|---|---|---|---|---|
| 2026-05-07 19:40 | 35.05985 | -89.96877 | 348 ft | 0 kts | 1° |
| 2026-05-07 19:59 | 35.05980 | -89.96877 | 348 ft | 2 kts | 1° |
| 2026-05-07 20:00 | 35.05971 | -89.96877 | 348 ft | 2 kts | 1° |
| 2026-05-07 20:00 | 35.05956 | -89.96875 | 348 ft | 2 kts | 341° |
| 2026-05-07 20:00 | 35.05946 | -89.96870 | 348 ft | 2 kts | 327° |
| 2026-05-07 20:00 | 35.05934 | -89.96858 | 348 ft | 2 kts | 310° |
| 2026-05-07 20:01 | 35.05926 | -89.96842 | 348 ft | 2 kts | 292° |
| 2026-05-07 20:01 | 35.05922 | -89.96825 | 348 ft | 1 kts | 275° |
| 2026-05-07 20:01 | 35.05922 | -89.96819 | 348 ft | 0 kts | 272° |
| 2026-05-07 20:06 | 35.05922 | -89.96833 | 348 ft | 4 kts | 272° |
| 2026-05-07 20:06 | 35.05920 | -89.96887 | 348 ft | 5 kts | 240° |
| 2026-05-07 20:06 | 35.05871 | -89.96903 | 348 ft | 9 kts | 182° |
| 2026-05-07 20:07 | 35.05812 | -89.96916 | 348 ft | 5 kts | 193° |
| 2026-05-07 20:07 | 35.05783 | -89.96923 | 348 ft | 6 kts | 190° |
| 2026-05-07 20:07 | 35.05728 | -89.96934 | 348 ft | 6 kts | 188° |
| 2026-05-07 20:07 | 35.05674 | -89.96956 | 348 ft | 11 kts | 223° |
| 2026-05-07 20:08 | 35.05656 | -89.97073 | 348 ft | 16 kts | 275° |
| 2026-05-07 20:08 | 35.05660 | -89.97224 | 348 ft | 18 kts | 271° |
| 2026-05-07 20:08 | 35.05664 | -89.97362 | 348 ft | 9 kts | 272° |
| 2026-05-07 20:08 | 35.05667 | -89.97446 | 348 ft | 13 kts | 272° |
| 2026-05-07 20:09 | 35.05672 | -89.97612 | 348 ft | 21 kts | 271° |
| 2026-05-07 20:09 | 35.05676 | -89.97751 | 348 ft | 9 kts | 272° |
| 2026-05-07 20:09 | 35.05679 | -89.97849 | 348 ft | 14 kts | 272° |
| 2026-05-07 20:10 | 35.05688 | -89.98189 | 348 ft | 17 kts | 272° |
| 2026-05-07 20:10 | 35.05692 | -89.98346 | 348 ft | 20 kts | 272° |
| 2026-05-07 20:10 | 35.05687 | -89.98476 | 348 ft | 13 kts | 236° |
| 2026-05-07 20:10 | 35.05586 | -89.98508 | 348 ft | 17 kts | 180° |
| 2026-05-07 20:11 | 35.05453 | -89.98507 | 348 ft | 20 kts | 181° |
| 2026-05-07 20:11 | 35.05294 | -89.98511 | 348 ft | 24 kts | 180° |
| 2026-05-07 20:11 | 35.05133 | -89.98511 | 348 ft | 19 kts | 180° |
| 2026-05-07 20:11 | 35.04987 | -89.98514 | 348 ft | 22 kts | 180° |
| 2026-05-07 20:12 | 35.04826 | -89.98510 | 348 ft | 19 kts | 179° |
| 2026-05-07 20:12 | 35.04699 | -89.98507 | 348 ft | 19 kts | 179° |
| 2026-05-07 20:12 | 35.04557 | -89.98505 | 348 ft | 21 kts | 179° |
| 2026-05-07 20:12 | 35.04400 | -89.98502 | 348 ft | 23 kts | 179° |
| 2026-05-07 20:13 | 35.04244 | -89.98498 | 348 ft | 21 kts | 179° |
| 2026-05-07 20:13 | 35.04091 | -89.98495 | 348 ft | 23 kts | 179° |
| 2026-05-07 20:13 | 35.03923 | -89.98492 | 348 ft | 24 kts | 179° |
| 2026-05-07 20:13 | 35.03741 | -89.98488 | 348 ft | 26 kts | 179° |
| 2026-05-07 20:14 | 35.03547 | -89.98479 | 348 ft | 28 kts | 178° |
| 2026-05-07 20:14 | 35.03341 | -89.98476 | 348 ft | 30 kts | 179° |
| 2026-05-07 20:14 | 35.03150 | -89.98473 | 348 ft | 18 kts | 179° |
| 2026-05-07 20:14 | 35.03016 | -89.98468 | 348 ft | 20 kts | 179° |
| 2026-05-07 20:15 | 35.02868 | -89.98464 | 348 ft | 22 kts | 179° |
| 2026-05-07 20:15 | 35.02703 | -89.98462 | 348 ft | 24 kts | 179° |
| 2026-05-07 20:15 | 35.02544 | -89.98457 | 348 ft | 21 kts | 178° |
| 2026-05-07 20:15 | 35.02434 | -89.98463 | 348 ft | 11 kts | 206° |
| 2026-05-07 20:16 | 35.02405 | -89.98560 | 348 ft | 13 kts | 270° |
| 2026-05-07 20:16 | 35.02421 | -89.98671 | 348 ft | 12 kts | 316° |
| 2026-05-07 20:16 | 35.02489 | -89.98692 | 348 ft | 3 kts | 0° |
| 2026-05-07 20:17 | 35.02499 | -89.98692 | 348 ft | 9 kts | 1° |
| 2026-05-07 20:17 | 35.02815 | -89.98698 | 349 ft | 82 kts | 359° |
| 2026-05-07 20:18 | 35.03625 | -89.98714 | 349 ft | 151 kts | 359° |
| 2026-05-07 20:18 | 35.04828 | -89.98732 | 699 ft | 180 kts | 0° |
| 2026-05-07 20:18 | 35.06012 | -89.98540 | 1602 ft | 174 kts | 9° |
| 2026-05-07 20:18 | 35.07228 | -89.98337 | 2308 ft | 185 kts | 7° |
| 2026-05-07 20:19 | 35.08523 | -89.98002 | 2908 ft | 194 kts | 17° |
| 2026-05-07 20:19 | 35.09814 | -89.97549 | 3687 ft | 197 kts | 13° |
| 2026-05-07 20:19 | 35.11212 | -89.97139 | 4113 ft | 220 kts | 11° |
| 2026-05-07 20:19 | 35.12801 | -89.96724 | 4616 ft | 242 kts | 10° |
| 2026-05-07 20:20 | 35.14472 | -89.96292 | 5363 ft | 257 kts | 10° |
| 2026-05-07 20:20 | 35.16255 | -89.95812 | 6293 ft | 267 kts | 9° |
| 2026-05-07 20:20 | 35.18067 | -89.95306 | 7269 ft | 275 kts | 8° |
| 2026-05-07 20:20 | 35.19945 | -89.94778 | 8281 ft | 282 kts | 7° |
| 2026-05-07 20:21 | 35.21852 | -89.94044 | 9336 ft | 293 kts | 16° |
| 2026-05-07 20:21 | 35.23648 | -89.92851 | 10307 ft | 306 kts | 27° |
| 2026-05-07 20:21 | 35.25433 | -89.91210 | 10791 ft | 336 kts | 33° |
| 2026-05-07 20:21 | 35.27280 | -89.89247 | 11167 ft | 367 kts | 36° |
| 2026-05-07 20:22 | 35.29281 | -89.87056 | 11521 ft | 396 kts | 36° |
| 2026-05-07 20:22 | 35.31374 | -89.84798 | 12299 ft | 410 kts | 35° |
| 2026-05-07 20:22 | 35.33579 | -89.82499 | 13192 ft | 420 kts | 34° |
| 2026-05-07 20:22 | 35.35828 | -89.80204 | 14170 ft | 427 kts | 34° |
| 2026-05-07 20:23 | 35.38119 | -89.77885 | 15072 ft | 436 kts | 33° |
| 2026-05-07 20:23 | 35.40487 | -89.75485 | 16033 ft | 442 kts | 33° |
| 2026-05-07 20:23 | 35.42833 | -89.73090 | 16939 ft | 449 kts | 33° |
| 2026-05-07 20:23 | 35.45264 | -89.70599 | 17816 ft | 456 kts | 33° |
| 2026-05-07 20:24 | 35.47696 | -89.68117 | 18647 ft | 464 kts | 33° |
| 2026-05-07 20:24 | 35.50199 | -89.65579 | 19475 ft | 470 kts | 33° |
| 2026-05-07 20:24 | 35.52751 | -89.62985 | 20248 ft | 478 kts | 33° |
| 2026-05-07 20:24 | 35.55310 | -89.60362 | 21102 ft | 484 kts | 32° |
| 2026-05-07 20:25 | 35.57943 | -89.57679 | 21833 ft | 491 kts | 32° |
| 2026-05-07 20:25 | 35.60576 | -89.55032 | 22565 ft | 496 kts | 30° |
| 2026-05-07 20:25 | 35.63384 | -89.52577 | 23308 ft | 496 kts | 25° |
| 2026-05-07 20:25 | 35.66188 | -89.50442 | 23912 ft | 501 kts | 22° |
| 2026-05-07 20:26 | 35.68528 | -89.48766 | 24419 ft | 506 kts | 21° |
| 2026-05-07 20:26 | 35.71587 | -89.46596 | 25058 ft | 514 kts | 21° |
| 2026-05-07 20:26 | 35.74660 | -89.44357 | 25681 ft | 522 kts | 21° |
| 2026-05-07 20:27 | 35.77800 | -89.42014 | 26281 ft | 530 kts | 21° |
| 2026-05-07 20:27 | 35.80985 | -89.39607 | 26872 ft | 538 kts | 21° |
| 2026-05-07 20:27 | 35.84193 | -89.37169 | 27489 ft | 545 kts | 21° |
| 2026-05-07 20:27 | 35.87427 | -89.34712 | 28073 ft | 552 kts | 21° |
| 2026-05-07 20:28 | 35.90719 | -89.32217 | 28594 ft | 560 kts | 21° |
| 2026-05-07 20:28 | 35.94064 | -89.29680 | 29403 ft | 560 kts | 20° |
| 2026-05-07 20:28 | 35.97080 | -89.27399 | 30101 ft | 561 kts | 20° |
| 2026-05-07 20:28 | 35.99173 | -89.25824 | 30621 ft | 561 kts | 19° |
| 2026-05-07 20:29 | 36.02506 | -89.23322 | 31414 ft | 561 kts | 19° |
| 2026-05-07 20:29 | 36.05828 | -89.20821 | 32193 ft | 560 kts | 19° |
| 2026-05-07 20:29 | 36.09139 | -89.18323 | 32859 ft | 561 kts | 19° |
| 2026-05-07 20:29 | 36.11360 | -89.16648 | 33365 ft | 559 kts | 18° |
| 2026-05-07 20:30 | 36.15801 | -89.13322 | 34245 ft | 559 kts | 18° |
| 2026-05-07 20:30 | 36.19116 | -89.10824 | 34972 ft | 554 kts | 18° |
| 2026-05-07 20:30 | 36.22392 | -89.08351 | 34972 ft | 552 kts | 18° |
| 2026-05-07 20:31 | 36.28921 | -89.03455 | 35033 ft | 546 kts | 18° |
| 2026-05-07 20:31 | 36.35408 | -88.98576 | 35056 ft | 549 kts | 18° |
| 2026-05-07 20:32 | 36.42025 | -88.93951 | 35051 ft | 542 kts | 15° |
| 2026-05-07 20:32 | 36.48602 | -88.89218 | 35051 ft | 548 kts | 18° |
| 2026-05-07 20:33 | 36.55080 | -88.84197 | 35065 ft | 550 kts | 19° |
| 2026-05-07 20:33 | 36.61573 | -88.79223 | 35061 ft | 544 kts | 15° |
| 2026-05-07 20:34 | 36.68175 | -88.74593 | 35059 ft | 544 kts | 17° |
| 2026-05-07 20:34 | 36.74665 | -88.69643 | 35059 ft | 548 kts | 19° |
| 2026-05-07 20:35 | 36.81113 | -88.64541 | 35071 ft | 549 kts | 19° |
| 2026-05-07 20:35 | 36.87572 | -88.59461 | 35066 ft | 550 kts | 19° |
| 2026-05-07 20:36 | 36.94047 | -88.54404 | 35062 ft | 548 kts | 19° |
| 2026-05-07 20:36 | 37.00515 | -88.49333 | 35067 ft | 546 kts | 18° |
| 2026-05-07 20:37 | 37.06924 | -88.44330 | 35068 ft | 546 kts | 19° |
| 2026-05-07 20:37 | 37.13364 | -88.39293 | 35070 ft | 545 kts | 19° |
| 2026-05-07 20:38 | 37.19785 | -88.34265 | 35060 ft | 545 kts | 19° |
| 2026-05-07 20:38 | 37.26227 | -88.29248 | 35043 ft | 545 kts | 19° |
| 2026-05-07 20:39 | 37.32649 | -88.24220 | 35048 ft | 542 kts | 19° |
| 2026-05-07 20:39 | 37.39054 | -88.19132 | 35054 ft | 542 kts | 20° |
| 2026-05-07 20:40 | 37.45422 | -88.14020 | 35050 ft | 540 kts | 20° |
| 2026-05-07 20:40 | 37.51757 | -88.08974 | 35061 ft | 540 kts | 20° |
| 2026-05-07 20:41 | 37.58072 | -88.03925 | 35050 ft | 541 kts | 20° |
| 2026-05-07 20:41 | 37.64479 | -87.98803 | 35064 ft | 541 kts | 20° |
| 2026-05-07 20:42 | 37.70806 | -87.93767 | 35059 ft | 537 kts | 20° |
| 2026-05-07 20:42 | 37.77143 | -87.88705 | 35070 ft | 538 kts | 20° |
| 2026-05-07 20:43 | 37.83434 | -87.83692 | 35067 ft | 535 kts | 20° |
| 2026-05-07 20:43 | 37.89720 | -87.78667 | 35070 ft | 535 kts | 22° |
| 2026-05-07 20:44 | 37.95784 | -87.73075 | 35079 ft | 546 kts | 28° |
| 2026-05-07 20:44 | 38.01573 | -87.66744 | 35075 ft | 551 kts | 32° |
| 2026-05-07 20:45 | 38.07317 | -87.60268 | 35070 ft | 550 kts | 31° |
| 2026-05-07 20:45 | 38.13082 | -87.53921 | 35066 ft | 549 kts | 31° |
| 2026-05-07 20:46 | 38.18838 | -87.47559 | 35067 ft | 550 kts | 31° |
| 2026-05-07 20:46 | 38.23546 | -87.42355 | 35071 ft | 549 kts | 30° |
| 2026-05-07 20:47 | 38.29291 | -87.36026 | 35067 ft | 548 kts | 30° |
| 2026-05-07 20:47 | 38.35064 | -87.29652 | 35043 ft | 548 kts | 31° |
| 2026-05-07 20:48 | 38.40826 | -87.23309 | 35034 ft | 548 kts | 31° |
| 2026-05-07 20:48 | 38.46615 | -87.16921 | 35037 ft | 549 kts | 31° |
| 2026-05-07 20:49 | 38.52396 | -87.10571 | 35038 ft | 550 kts | 31° |
| 2026-05-07 20:49 | 38.58200 | -87.04170 | 35039 ft | 549 kts | 31° |
| 2026-05-07 20:50 | 38.63969 | -86.97778 | 35044 ft | 552 kts | 31° |
| 2026-05-07 20:50 | 38.69655 | -86.91291 | 35046 ft | 550 kts | 31° |
| 2026-05-07 20:51 | 38.75371 | -86.84789 | 35044 ft | 551 kts | 31° |
| 2026-05-07 20:51 | 38.81114 | -86.78284 | 35042 ft | 551 kts | 31° |
| 2026-05-07 20:52 | 38.86870 | -86.71778 | 35024 ft | 550 kts | 31° |
| 2026-05-07 20:52 | 38.92617 | -86.65280 | 35042 ft | 550 kts | 31° |
| 2026-05-07 20:53 | 38.98365 | -86.58787 | 35037 ft | 553 kts | 31° |
| 2026-05-07 20:53 | 39.04169 | -86.52226 | 35032 ft | 552 kts | 31° |
| 2026-05-07 20:54 | 39.09931 | -86.45734 | 35026 ft | 550 kts | 31° |
| 2026-05-07 20:54 | 39.15669 | -86.39259 | 35030 ft | 549 kts | 30° |
| 2026-05-07 20:55 | 39.21402 | -86.32807 | 35009 ft | 548 kts | 31° |
| 2026-05-07 20:55 | 39.27129 | -86.26267 | 34890 ft | 553 kts | 32° |
| 2026-05-07 20:56 | 39.32856 | -86.19574 | 34948 ft | 555 kts | 32° |
| 2026-05-07 20:56 | 39.38601 | -86.12870 | 34990 ft | 554 kts | 32° |
| 2026-05-07 20:57 | 39.44320 | -86.06235 | 35008 ft | 554 kts | 32° |
| 2026-05-07 20:57 | 39.50049 | -85.99593 | 35047 ft | 553 kts | 32° |
| 2026-05-07 20:58 | 39.55777 | -85.92953 | 35045 ft | 553 kts | 32° |
| 2026-05-07 20:58 | 39.61496 | -85.86327 | 35043 ft | 551 kts | 32° |
| 2026-05-07 20:59 | 39.67239 | -85.79695 | 35017 ft | 549 kts | 32° |
| 2026-05-07 20:59 | 39.72920 | -85.73120 | 34998 ft | 549 kts | 32° |
| 2026-05-07 21:00 | 39.78634 | -85.66516 | 34959 ft | 551 kts | 32° |
| 2026-05-07 21:00 | 39.84375 | -85.59883 | 34966 ft | 551 kts | 32° |
| 2026-05-07 21:01 | 39.90048 | -85.53202 | 35169 ft | 552 kts | 32° |
| 2026-05-07 21:01 | 39.92852 | -85.49840 | 35063 ft | 550 kts | 33° |
| 2026-05-07 21:01 | 39.95672 | -85.46452 | 35069 ft | 548 kts | 32° |
| 2026-05-07 21:02 | 40.01296 | -85.39738 | 35033 ft | 546 kts | 32° |
| 2026-05-07 21:02 | 40.06933 | -85.33036 | 35011 ft | 549 kts | 33° |
| 2026-05-07 21:03 | 40.12586 | -85.26319 | 34986 ft | 549 kts | 33° |
| 2026-05-07 21:03 | 40.18208 | -85.19637 | 34985 ft | 550 kts | 33° |
| 2026-05-07 21:04 | 40.23873 | -85.12902 | 34980 ft | 549 kts | 33° |
| 2026-05-07 21:04 | 40.29530 | -85.06189 | 34993 ft | 550 kts | 33° |
| 2026-05-07 21:05 | 40.35216 | -84.99446 | 34986 ft | 549 kts | 32° |
| 2026-05-07 21:05 | 40.40886 | -84.92729 | 34991 ft | 549 kts | 32° |
| 2026-05-07 21:06 | 40.46528 | -84.86050 | 34982 ft | 548 kts | 32° |
| 2026-05-07 21:06 | 40.52145 | -84.79238 | 34973 ft | 550 kts | 34° |
| 2026-05-07 21:07 | 40.57713 | -84.72379 | 34962 ft | 549 kts | 33° |
| 2026-05-07 21:07 | 40.63272 | -84.65565 | 34960 ft | 548 kts | 33° |
| 2026-05-07 21:08 | 40.68868 | -84.58730 | 34957 ft | 547 kts | 33° |
| 2026-05-07 21:08 | 40.74447 | -84.51924 | 34948 ft | 547 kts | 33° |
| 2026-05-07 21:09 | 40.80010 | -84.45140 | 34952 ft | 546 kts | 33° |
| 2026-05-07 21:09 | 40.85595 | -84.38332 | 34944 ft | 546 kts | 33° |
| 2026-05-07 21:10 | 40.91167 | -84.31546 | 34932 ft | 546 kts | 33° |
| 2026-05-07 21:10 | 40.96755 | -84.24747 | 34927 ft | 546 kts | 33° |
| 2026-05-07 21:11 | 41.02358 | -84.17938 | 34925 ft | 547 kts | 33° |
| 2026-05-07 21:11 | 41.10740 | -84.07697 | 34912 ft | 548 kts | 34° |
| 2026-05-07 21:12 | 41.16268 | -84.00757 | 34928 ft | 547 kts | 34° |
| 2026-05-07 21:12 | 41.21807 | -83.93833 | 34933 ft | 547 kts | 34° |
| 2026-05-07 21:13 | 41.27352 | -83.86933 | 34949 ft | 546 kts | 34° |
| 2026-05-07 21:13 | 41.30125 | -83.83480 | 34928 ft | 546 kts | 34° |